KDLF/DLF METAR and TAF weather

Enter ICAO airport designator
Station Type Date Time Source
KDLF METAR 2019/10/18 05:56 UTC NOAA

KDLF 180556Z AUTO 12005KT 10SM CLR 15/11 A2990 RMK AO2 SLP118 T01510111 10235 20149 402580149 58002 RVRNO $


Station Type Date Time Source
KDLF Decoded METAR 2019/10/18 05:56 UTC NOAA

Laughlin, Laughlin Air Force Base Auxiliary Airfield, TX, United States (KDLF) 29-07-00N 100-28-00W 294M
Oct 18, 2019 - 01:56 AM EDT / 2019.10.18 0556 UTC
Wind: from the ESE (120 degrees) at 6 MPH (5 KT):0
Visibility: 10 mile(s):0
Sky conditions: clear
Temperature: 59.2 F (15.1 C)
Dew Point: 52.0 F (11.1 C)
Relative Humidity: 76%
Pressure (altimeter): 29.9 in. Hg (1012 hPa)
Pressure tendency: 0.01 inches (0.2 hPa) lower than three hours ago
ob: KDLF 180556Z AUTO 12005KT 10SM CLR 15/11 A2990 RMK AO2 SLP118 T01510111 10235 20149 402580149 58002 RVRNO
cycle: 6

Station Type Date Time Source
KDLF TAF 2019/10/17 23:46 UTC NOAA

TAF
AMD KDLF 172300Z 1723/1824 13009KT 9999 FEW070 QNH2986INS
BECMG 1812/1813 13009KT 9999 BKN020 QNH2986INS
BECMG 1815/1816 13009KT 9999 SCT080 QNH2970INS TX25/1723Z TN13/1813Z LAST NO
AMDS AFT 1723 NEXT 1810

Example: see airport list